createdAt,value
2018-07-09T00:00:53.728Z,15.20
2018-07-09T00:03:21.867Z,15.20
2018-07-09T00:05:51.038Z,15.20
2018-07-09T00:08:19.458Z,15.10
2018-07-09T00:11:12.879Z,15.10
2018-07-09T00:13:42.136Z,15.00
2018-07-09T00:16:13.894Z,14.90
2018-07-09T00:18:42.982Z,14.90
2018-07-09T00:21:11.141Z,14.90
2018-07-09T00:23:39.276Z,14.80
2018-07-09T00:26:07.401Z,14.90
2018-07-09T00:28:35.556Z,14.90
2018-07-09T00:31:03.710Z,15.00
2018-07-09T00:33:31.830Z,15.10
2018-07-09T00:36:00.002Z,15.10
2018-07-09T00:38:28.161Z,15.20
2018-07-09T00:40:56.282Z,15.30
2018-07-09T00:43:24.386Z,15.30
2018-07-09T00:45:52.515Z,15.40
2018-07-09T00:48:20.731Z,15.40
2018-07-09T00:50:48.866Z,15.40
2018-07-09T00:53:17.016Z,15.50
2018-07-09T00:55:45.244Z,15.50
2018-07-09T00:58:13.412Z,15.40
2018-07-09T01:00:41.785Z,15.30
2018-07-09T01:03:09.913Z,15.30
2018-07-09T01:05:38.052Z,15.20
2018-07-09T01:08:06.149Z,15.00
2018-07-09T01:10:44.183Z,14.90
2018-07-09T01:13:12.386Z,14.70
2018-07-09T01:15:40.571Z,14.60
2018-07-09T01:18:08.681Z,14.60
2018-07-09T01:20:36.825Z,14.50
2018-07-09T01:23:04.950Z,14.50
2018-07-09T01:25:33.098Z,14.50
2018-07-09T01:28:01.231Z,14.40
2018-07-09T01:30:34.780Z,14.30
2018-07-09T01:33:02.911Z,14.30
2018-07-09T01:35:31.067Z,14.20
2018-07-09T01:37:59.166Z,14.20
2018-07-09T01:40:27.291Z,14.20
2018-07-09T01:42:55.411Z,14.20
2018-07-09T01:45:23.559Z,14.20
2018-07-09T01:47:51.698Z,14.10
2018-07-09T01:50:19.826Z,14.10
2018-07-09T01:52:47.946Z,14.10
2018-07-09T01:55:16.082Z,14.00
2018-07-09T01:57:44.254Z,14.00
2018-07-09T02:00:13.221Z,14.00
2018-07-09T02:02:41.376Z,13.90
2018-07-09T02:05:09.509Z,13.90
2018-07-09T02:07:37.631Z,14.00
2018-07-09T02:10:06.294Z,14.00
2018-07-09T02:12:34.453Z,13.90
2018-07-09T02:15:02.590Z,13.80
2018-07-09T02:17:30.726Z,13.70
2018-07-09T02:19:58.832Z,13.60
2018-07-09T02:22:26.967Z,13.50
2018-07-09T02:24:55.105Z,13.50
2018-07-09T02:27:23.227Z,13.40
2018-07-09T02:29:51.366Z,13.30
2018-07-09T02:32:19.508Z,13.30
2018-07-09T02:34:47.646Z,13.20
2018-07-09T02:37:15.791Z,13.20
2018-07-09T02:39:43.990Z,13.20
2018-07-09T02:42:12.087Z,13.10
2018-07-09T02:44:40.228Z,13.20
2018-07-09T02:47:08.355Z,13.20
2018-07-09T02:49:36.472Z,13.10
2018-07-09T02:52:04.595Z,13.20
2018-07-09T02:54:32.713Z,13.00
2018-07-09T02:57:00.852Z,13.00
2018-07-09T02:59:28.990Z,13.00
2018-07-09T03:01:57.128Z,12.90
2018-07-09T03:04:25.301Z,12.90
2018-07-09T03:06:53.438Z,12.80
2018-07-09T03:09:21.560Z,12.90
2018-07-09T03:11:49.657Z,12.80
2018-07-09T03:14:17.781Z,12.80
2018-07-09T03:16:45.943Z,12.80
2018-07-09T03:19:14.114Z,12.90
2018-07-09T03:21:42.315Z,12.90
2018-07-09T03:24:10.462Z,12.90
2018-07-09T03:26:38.574Z,12.90
2018-07-09T03:29:06.703Z,12.90
2018-07-09T03:31:34.879Z,12.90
2018-07-09T03:34:03.014Z,12.80
2018-07-09T03:36:31.138Z,12.80
2018-07-09T03:39:00.183Z,12.80
2018-07-09T03:41:28.349Z,12.80
2018-07-09T03:43:56.494Z,12.70
2018-07-09T03:46:24.606Z,12.70
2018-07-09T03:48:52.724Z,12.80
2018-07-09T03:51:20.854Z,12.80
2018-07-09T03:53:48.983Z,12.80
2018-07-09T03:56:17.142Z,12.90
2018-07-09T03:58:45.322Z,12.90
2018-07-09T04:01:13.530Z,12.90
2018-07-09T04:03:41.703Z,12.90
2018-07-09T04:06:09.853Z,12.90
2018-07-09T04:08:37.987Z,12.90
2018-07-09T04:11:06.127Z,12.90
2018-07-09T04:13:34.260Z,13.00
2018-07-09T04:16:02.435Z,13.20
2018-07-09T04:18:30.550Z,13.20
2018-07-09T04:20:58.741Z,13.20
2018-07-09T04:23:26.861Z,13.30
2018-07-09T04:25:55.037Z,13.20
2018-07-09T04:28:23.159Z,13.20
2018-07-09T04:30:51.291Z,13.20
2018-07-09T04:33:19.953Z,13.20
2018-07-09T04:35:48.232Z,13.20
2018-07-09T04:38:16.392Z,13.30
2018-07-09T04:40:44.525Z,13.30
2018-07-09T04:43:12.759Z,13.30
2018-07-09T04:45:42.038Z,13.40
2018-07-09T04:48:10.204Z,13.40
2018-07-09T04:50:38.374Z,13.50
2018-07-09T04:53:06.505Z,13.50
2018-07-09T04:55:34.788Z,13.50
2018-07-09T04:58:02.916Z,13.70
2018-07-09T05:00:31.077Z,13.70
2018-07-09T05:02:59.224Z,13.60
2018-07-09T05:05:27.351Z,13.70
2018-07-09T05:07:55.821Z,13.70
2018-07-09T05:10:24.436Z,13.80
2018-07-09T05:12:52.799Z,13.90
2018-07-09T05:15:20.870Z,14.10
2018-07-09T05:17:49.030Z,14.20
2018-07-09T05:20:17.241Z,14.40
2018-07-09T05:22:45.446Z,14.50
2018-07-09T05:25:13.648Z,14.50
2018-07-09T05:27:41.831Z,14.50
2018-07-09T05:30:09.970Z,14.60
2018-07-09T05:32:38.131Z,14.80
2018-07-09T05:35:06.523Z,14.90
2018-07-09T05:37:34.667Z,15.10
2018-07-09T05:40:02.896Z,15.30
2018-07-09T05:42:30.982Z,15.50
2018-07-09T05:44:59.210Z,15.70
2018-07-09T05:47:27.313Z,15.70
2018-07-09T05:49:55.529Z,15.90
2018-07-09T05:52:23.658Z,16.10
2018-07-09T05:54:51.819Z,16.30
2018-07-09T05:57:19.960Z,16.30
2018-07-09T05:59:48.118Z,16.30
2018-07-09T06:02:16.283Z,16.30
2018-07-09T06:04:44.450Z,16.40
2018-07-09T06:07:12.603Z,16.80
2018-07-09T06:09:40.777Z,17.20
2018-07-09T06:12:08.914Z,17.70
2018-07-09T06:14:38.700Z,18.00
2018-07-09T06:17:09.235Z,18.00
2018-07-09T06:19:43.661Z,18.00
2018-07-09T06:28:27.398Z,18.20
2018-07-09T06:30:55.971Z,18.40
2018-07-09T06:33:24.236Z,18.90
2018-07-09T06:35:52.376Z,18.90
2018-07-09T06:38:20.554Z,18.80
2018-07-09T06:40:48.689Z,19.00
2018-07-09T06:43:16.887Z,19.10
2018-07-09T06:45:45.110Z,19.10
2018-07-09T06:48:13.395Z,19.20
2018-07-09T06:50:41.763Z,19.30
2018-07-09T06:53:09.924Z,19.20
2018-07-09T06:55:38.093Z,19.20
2018-07-09T06:58:06.230Z,19.40
2018-07-09T07:00:36.027Z,19.50
2018-07-09T07:03:04.152Z,19.50
2018-07-09T07:05:32.337Z,19.50
2018-07-09T07:08:00.502Z,19.80
2018-07-09T07:10:28.685Z,19.90
2018-07-09T07:12:56.846Z,20.20
2018-07-09T07:15:25.563Z,20.20
2018-07-09T07:17:55.138Z,20.30
2018-07-09T07:20:23.875Z,20.50
2018-07-09T07:22:52.797Z,20.80
2018-07-09T07:25:22.153Z,20.90
2018-07-09T07:27:50.828Z,20.80
2018-07-09T07:30:19.360Z,21.00
2018-07-09T07:32:48.481Z,20.90
2018-07-09T07:35:16.953Z,20.90
2018-07-09T07:37:45.463Z,21.30
2018-07-09T07:40:14.004Z,21.70
2018-07-09T07:42:48.104Z,22.10
2018-07-09T07:45:16.650Z,22.30
2018-07-09T07:47:45.733Z,22.10
2018-07-09T07:50:14.187Z,22.30
2018-07-09T07:52:42.762Z,22.50
2018-07-09T07:55:11.280Z,22.50
2018-07-09T07:57:40.888Z,22.30
2018-07-09T08:00:13.105Z,22.30
2018-07-09T08:02:41.720Z,22.50
2018-07-09T08:05:23.790Z,22.40
2018-07-09T08:07:52.540Z,22.40
2018-07-09T08:10:21.197Z,22.70
2018-07-09T08:15:18.250Z,23.10
2018-07-09T08:17:46.717Z,23.30
2018-07-09T08:20:15.180Z,23.60
2018-07-09T08:22:43.705Z,24.00
2018-07-09T08:25:12.231Z,24.20
2018-07-09T08:27:40.546Z,24.50
2018-07-09T08:30:09.018Z,24.60
2018-07-09T08:32:37.733Z,24.60
2018-07-09T08:35:07.211Z,24.70
2018-07-09T08:37:35.678Z,24.60
2018-07-09T08:40:04.144Z,24.70
2018-07-09T08:42:32.572Z,24.90
2018-07-09T08:45:01.241Z,24.80
2018-07-09T08:47:29.717Z,24.60
2018-07-09T08:49:58.362Z,24.70
2018-07-09T08:52:26.787Z,24.60
2018-07-09T08:54:55.166Z,24.60
2018-07-09T08:57:23.645Z,24.70
2018-07-09T08:59:52.062Z,24.60
2018-07-09T09:02:20.577Z,24.70
2018-07-09T09:04:48.981Z,24.80
2018-07-09T09:07:17.401Z,24.90
2018-07-09T09:09:45.850Z,24.60
2018-07-09T09:12:14.316Z,24.70
2018-07-09T09:14:42.797Z,25.00
2018-07-09T09:17:11.121Z,25.30
2018-07-09T09:19:39.622Z,25.30
2018-07-09T09:22:08.151Z,25.30
2018-07-09T09:24:36.696Z,25.30
2018-07-09T09:27:05.212Z,25.50
2018-07-09T09:29:33.622Z,25.80
2018-07-09T09:32:02.129Z,26.10
2018-07-09T09:34:30.939Z,26.00
2018-07-09T09:36:59.346Z,25.90
2018-07-09T09:39:28.808Z,25.90
2018-07-09T09:41:57.332Z,25.70
2018-07-09T09:44:25.714Z,25.70
2018-07-09T09:46:54.174Z,26.00
2018-07-09T09:49:22.827Z,26.40
2018-07-09T09:51:51.208Z,26.80
2018-07-09T09:54:20.404Z,27.00
2018-07-09T09:56:49.905Z,27.20
2018-07-09T09:59:18.427Z,27.40
2018-07-09T10:01:46.996Z,27.50
2018-07-09T10:04:15.561Z,27.50
2018-07-09T10:06:46.897Z,27.50
2018-07-09T10:09:15.330Z,27.70
2018-07-09T10:11:44.025Z,27.70
2018-07-09T10:14:12.548Z,27.80
2018-07-09T10:16:41.215Z,28.10
2018-07-09T10:19:10.656Z,28.20
2018-07-09T10:21:39.129Z,28.30
2018-07-09T10:24:08.165Z,28.60
2018-07-09T10:26:37.374Z,28.80
2018-07-09T10:29:05.815Z,28.90
2018-07-09T10:31:34.193Z,28.90
2018-07-09T10:34:02.825Z,28.70
2018-07-09T10:36:31.239Z,28.20
2018-07-09T10:38:59.609Z,27.60
2018-07-09T10:41:28.052Z,27.30
2018-07-09T10:43:56.534Z,27.10
2018-07-09T10:46:25.107Z,27.00
2018-07-09T10:48:53.529Z,26.90
2018-07-09T10:51:22.114Z,27.00
2018-07-09T10:53:50.537Z,27.20
2018-07-09T10:56:18.982Z,27.50
2018-07-09T10:58:47.567Z,27.80
2018-07-09T11:01:16.058Z,27.90
2018-07-09T11:03:44.585Z,28.10
2018-07-09T11:06:13.170Z,28.00
2018-07-09T11:08:41.687Z,27.80
2018-07-09T11:11:10.192Z,27.70
2018-07-09T11:13:38.803Z,27.60
2018-07-09T11:16:07.307Z,27.90
2018-07-09T11:18:35.976Z,28.20
2018-07-09T11:21:05.142Z,28.40
2018-07-09T11:23:33.695Z,28.60
2018-07-09T11:26:02.383Z,28.80
2018-07-09T11:28:30.742Z,28.80
2018-07-09T11:30:59.338Z,28.80
2018-07-09T11:33:29.052Z,28.80
2018-07-09T11:35:57.507Z,29.10
2018-07-09T11:38:26.075Z,29.40
2018-07-09T11:40:54.565Z,29.50
2018-07-09T11:43:23.170Z,29.50
2018-07-09T11:45:51.724Z,29.30
2018-07-09T11:48:20.128Z,28.90
2018-07-09T11:50:48.606Z,28.70
2018-07-09T11:53:17.034Z,28.30
2018-07-09T11:55:45.433Z,28.30
2018-07-09T11:58:13.819Z,28.50
2018-07-09T12:00:42.304Z,28.70
2018-07-09T12:03:10.682Z,28.80
2018-07-09T12:05:39.630Z,28.90
2018-07-09T12:08:08.117Z,28.90
2018-07-09T12:10:36.589Z,28.80
2018-07-09T12:13:05.200Z,28.90
2018-07-09T12:15:33.664Z,29.10
2018-07-09T12:18:02.113Z,29.30
2018-07-09T12:20:30.646Z,29.00
2018-07-09T12:22:59.148Z,29.20
2018-07-09T12:25:27.610Z,29.40
2018-07-09T12:27:56.057Z,29.80
2018-07-09T12:30:24.541Z,29.90
2018-07-09T12:32:53.017Z,29.90
2018-07-09T12:35:21.495Z,30.10
2018-07-09T12:37:50.123Z,30.20
2018-07-09T12:40:18.542Z,30.20
2018-07-09T12:42:47.516Z,30.20
2018-07-09T12:45:16.010Z,30.30
2018-07-09T12:47:44.524Z,30.40
2018-07-09T12:50:13.011Z,30.00
2018-07-09T12:52:41.727Z,29.50
2018-07-09T12:55:10.331Z,29.10
2018-07-09T12:57:38.832Z,29.00
2018-07-09T13:00:07.862Z,29.30
2018-07-09T13:02:36.632Z,29.60
2018-07-09T13:05:05.075Z,29.50
2018-07-09T13:07:34.065Z,29.40
2018-07-09T13:10:02.432Z,29.20
2018-07-09T13:12:31.262Z,28.90
2018-07-09T13:15:00.597Z,28.90
2018-07-09T13:17:29.165Z,29.00
2018-07-09T13:19:57.589Z,29.20
2018-07-09T13:22:26.046Z,29.10
2018-07-09T13:24:54.515Z,29.00
2018-07-09T13:27:23.089Z,29.20
2018-07-09T13:29:51.507Z,29.40
2018-07-09T13:32:20.021Z,29.60
2018-07-09T13:34:48.544Z,29.70
2018-07-09T13:37:17.327Z,29.60
2018-07-09T13:39:45.787Z,29.50
2018-07-09T13:42:14.241Z,29.40
2018-07-09T13:44:42.787Z,29.30
2018-07-09T13:47:11.495Z,29.40
2018-07-09T13:49:40.255Z,29.50
2018-07-09T13:52:08.802Z,29.60
2018-07-09T13:54:37.288Z,29.40
2018-07-09T13:57:05.689Z,29.20
2018-07-09T13:59:34.346Z,29.00
2018-07-09T14:02:03.020Z,28.80
2018-07-09T14:04:31.423Z,28.80
2018-07-09T14:06:59.932Z,28.80
2018-07-09T14:09:28.570Z,28.80
2018-07-09T14:11:57.034Z,28.50
2018-07-09T14:14:25.545Z,28.30
2018-07-09T14:16:54.161Z,28.50
2018-07-09T14:20:35.691Z,28.50
2018-07-09T14:23:04.861Z,28.60
2018-07-09T14:25:33.326Z,28.90
2018-07-09T14:28:02.002Z,29.00
2018-07-09T14:30:30.429Z,29.10
2018-07-09T14:32:58.981Z,29.30
2018-07-09T14:35:27.604Z,29.40
2018-07-09T14:37:56.149Z,29.30
2018-07-09T14:40:24.901Z,29.10
2018-07-09T14:42:53.453Z,29.00
2018-07-09T14:45:21.905Z,29.00
2018-07-09T14:47:50.434Z,29.00
2018-07-09T14:50:18.875Z,28.90
2018-07-09T14:52:47.281Z,29.00
2018-07-09T14:55:15.904Z,29.10
2018-07-09T14:57:45.411Z,29.10
2018-07-09T15:00:14.098Z,29.20
2018-07-09T15:02:43.749Z,29.10
2018-07-09T15:05:12.301Z,28.80
2018-07-09T15:07:41.013Z,28.70
2018-07-09T15:10:09.467Z,28.70
2018-07-09T15:12:37.904Z,28.70
2018-07-09T15:15:06.500Z,28.70
2018-07-09T15:17:35.373Z,28.60
2018-07-09T15:20:03.918Z,28.50
2018-07-09T15:22:32.351Z,28.40
2018-07-09T15:25:01.017Z,28.20
2018-07-09T15:27:29.447Z,28.10
2018-07-09T15:29:57.789Z,27.90
2018-07-09T15:32:28.359Z,28.00
2018-07-09T15:34:58.083Z,28.00
2018-07-09T15:37:26.637Z,27.90
2018-07-09T15:39:55.287Z,27.80
2018-07-09T15:42:23.713Z,27.80
2018-07-09T15:44:52.125Z,27.80
2018-07-09T15:47:22.945Z,27.90
2018-07-09T15:49:51.630Z,27.90
2018-07-09T15:52:20.002Z,27.90
2018-07-09T15:54:48.698Z,27.90
2018-07-09T15:57:17.382Z,28.00
2018-07-09T15:59:45.785Z,28.10
2018-07-09T16:02:14.331Z,28.20
2018-07-09T16:04:43.217Z,28.20
2018-07-09T16:07:11.632Z,28.20
2018-07-09T16:09:40.042Z,28.20
2018-07-09T16:12:08.447Z,28.20
2018-07-09T16:14:37.078Z,28.20
2018-07-09T16:17:06.705Z,28.10
2018-07-09T16:19:35.114Z,28.10
2018-07-09T16:22:05.663Z,28.20
2018-07-09T16:24:34.356Z,28.20
2018-07-09T16:27:02.738Z,28.20
2018-07-09T16:29:31.243Z,28.20
2018-07-09T16:31:59.757Z,28.10
2018-07-09T16:34:28.254Z,28.10
2018-07-09T16:36:56.538Z,28.10
2018-07-09T16:39:24.932Z,28.00
2018-07-09T16:41:53.465Z,28.10
2018-07-09T16:44:21.874Z,28.00
2018-07-09T16:46:50.578Z,28.00
2018-07-09T16:49:19.673Z,28.00
2018-07-09T16:51:48.165Z,28.00
2018-07-09T16:54:16.837Z,28.00
2018-07-09T16:56:45.292Z,27.90
2018-07-09T16:59:13.738Z,27.70
2018-07-09T17:01:42.312Z,27.60
2018-07-09T17:04:10.851Z,27.60
2018-07-09T17:06:40.136Z,27.50
2018-07-09T17:09:08.853Z,27.40
2018-07-09T17:11:37.257Z,27.40
2018-07-09T17:14:05.964Z,27.20
2018-07-09T17:16:35.787Z,27.10
2018-07-09T17:19:04.781Z,27.00
2018-07-09T17:21:33.162Z,27.00
2018-07-09T17:24:02.273Z,26.90
2018-07-09T17:26:31.430Z,26.80
2018-07-09T17:28:59.607Z,26.80
2018-07-09T17:31:28.119Z,26.60
2018-07-09T17:33:56.923Z,26.60
2018-07-09T17:36:25.123Z,26.50
2018-07-09T17:38:53.559Z,26.40
2018-07-09T17:41:21.685Z,26.40
2018-07-09T17:43:49.928Z,26.30
2018-07-09T17:46:18.007Z,26.20
2018-07-09T17:48:46.169Z,26.10
2018-07-09T17:51:14.344Z,26.00
2018-07-09T17:53:42.530Z,25.90
2018-07-09T17:56:10.745Z,25.90
2018-07-09T17:58:38.910Z,25.80
2018-07-09T18:01:07.058Z,25.70
2018-07-09T18:03:35.252Z,25.60
2018-07-09T18:06:03.390Z,25.60
2018-07-09T18:08:31.553Z,25.60
2018-07-09T18:10:59.671Z,25.50
2018-07-09T18:13:27.919Z,25.50
2018-07-09T18:15:56.022Z,25.40
2018-07-09T18:18:24.173Z,25.40
2018-07-09T18:20:52.424Z,25.30
2018-07-09T18:23:20.576Z,25.20
2018-07-09T18:25:48.714Z,25.20
2018-07-09T18:28:16.897Z,25.10
2018-07-09T18:30:45.079Z,25.10
2018-07-09T18:33:13.243Z,25.00
2018-07-09T18:35:41.612Z,24.90
2018-07-09T18:38:09.691Z,24.80
2018-07-09T18:40:37.834Z,24.70
2018-07-09T18:43:05.972Z,24.60
2018-07-09T18:45:34.127Z,24.50
2018-07-09T18:48:03.334Z,24.50
2018-07-09T18:50:31.494Z,24.50
2018-07-09T18:52:59.741Z,24.40
2018-07-09T18:55:27.913Z,24.40
2018-07-09T18:57:56.098Z,24.30
2018-07-09T19:00:24.247Z,24.20
2018-07-09T19:02:52.373Z,24.20
2018-07-09T19:05:29.542Z,24.20
2018-07-09T19:07:57.680Z,24.20
2018-07-09T19:10:25.889Z,24.10
2018-07-09T19:12:54.055Z,24.00
2018-07-09T19:15:22.230Z,24.00
2018-07-09T19:18:09.408Z,24.00
2018-07-09T19:21:48.686Z,23.90
2018-07-09T19:24:15.854Z,23.80
2018-07-09T19:26:43.475Z,23.70
2018-07-09T19:29:10.647Z,23.70
2018-07-09T19:31:37.813Z,23.60
2018-07-09T19:34:05.099Z,23.60
2018-07-09T19:36:32.421Z,23.50
2018-07-09T19:38:59.555Z,23.50
2018-07-09T19:41:26.703Z,23.40
2018-07-09T19:43:53.881Z,23.40
2018-07-09T19:46:21.211Z,23.30
2018-07-09T19:48:48.420Z,23.20
2018-07-09T19:51:15.601Z,23.30
2018-07-09T19:53:42.806Z,23.10
2018-07-09T19:56:09.978Z,22.90
2018-07-09T19:58:37.166Z,22.70
2018-07-09T20:01:04.409Z,22.60
2018-07-09T20:03:31.620Z,22.40
2018-07-09T20:05:58.827Z,22.30
2018-07-09T20:08:31.306Z,22.20
2018-07-09T20:11:03.824Z,22.10
2018-07-09T20:14:01.079Z,22.10
2018-07-09T20:16:33.523Z,21.90
2018-07-09T20:19:00.733Z,21.90
2018-07-09T20:21:28.410Z,21.80
2018-07-09T20:23:55.574Z,21.70
2018-07-09T20:26:22.735Z,21.60
2018-07-09T20:28:49.981Z,21.60
2018-07-09T20:31:18.491Z,21.60
2018-07-09T20:33:47.858Z,21.50
2018-07-09T20:36:16.126Z,21.40
2018-07-09T20:38:43.389Z,21.20
2018-07-09T20:41:10.989Z,21.20
2018-07-09T20:43:38.170Z,21.10
2018-07-09T20:46:05.442Z,20.90
2018-07-09T20:48:32.610Z,20.80
2018-07-09T20:51:00.143Z,20.70
2018-07-09T20:53:27.296Z,20.60
2018-07-09T20:55:54.482Z,20.50
2018-07-09T20:58:21.668Z,20.50
2018-07-09T21:00:48.837Z,20.40
2018-07-09T21:03:16.578Z,20.30
2018-07-09T21:05:43.801Z,20.20
2018-07-09T21:08:11.016Z,20.20
2018-07-09T21:10:38.223Z,20.20
2018-07-09T21:13:05.442Z,20.30
2018-07-09T21:15:32.659Z,20.20
2018-07-09T21:17:59.797Z,20.20
2018-07-09T21:20:26.973Z,20.10
2018-07-09T21:22:54.127Z,20.00
2018-07-09T21:25:21.282Z,20.00
2018-07-09T21:27:48.480Z,19.90
2018-07-09T21:30:15.691Z,19.90
2018-07-09T21:32:42.903Z,19.70
2018-07-09T21:35:10.073Z,19.60
2018-07-09T21:37:37.333Z,19.50
2018-07-09T21:40:04.456Z,19.50
2018-07-09T21:42:31.634Z,19.40
2018-07-09T21:44:58.842Z,19.40
2018-07-09T21:47:26.934Z,19.40
2018-07-09T21:49:54.208Z,19.30
2018-07-09T21:52:26.748Z,19.20
2018-07-09T21:54:55.144Z,19.20
2018-07-09T21:57:22.698Z,19.20
2018-07-09T21:59:49.873Z,19.20
2018-07-09T22:02:17.098Z,19.20
2018-07-09T22:04:44.284Z,19.10
2018-07-09T22:07:11.489Z,19.00
2018-07-09T22:09:38.704Z,18.90
2018-07-09T22:12:05.888Z,18.90
2018-07-09T22:14:33.079Z,18.90
2018-07-09T22:17:00.291Z,18.90
2018-07-09T22:19:27.489Z,18.80
2018-07-09T22:21:54.657Z,18.80
2018-07-09T22:24:21.854Z,18.70
2018-07-09T22:26:49.095Z,18.60
2018-07-09T22:29:16.221Z,18.60
2018-07-09T22:31:44.399Z,18.50
2018-07-09T22:34:13.169Z,18.50
2018-07-09T22:36:41.642Z,18.50
2018-07-09T22:39:09.839Z,18.40
2018-07-09T22:41:37.998Z,18.40
2018-07-09T22:44:14.902Z,18.40
2018-07-09T22:46:43.091Z,18.40
2018-07-09T22:49:11.630Z,18.40
2018-07-09T22:51:39.927Z,18.30
2018-07-09T22:54:08.102Z,18.30
2018-07-09T22:56:36.279Z,18.30
2018-07-09T22:59:04.526Z,18.20
2018-07-09T23:01:32.664Z,18.20
2018-07-09T23:04:00.845Z,18.10
2018-07-09T23:06:29.617Z,18.00
2018-07-09T23:09:10.590Z,17.90
2018-07-09T23:14:01.689Z,17.90
2018-07-09T23:18:56.962Z,18.00
2018-07-09T23:22:26.878Z,18.00
2018-07-09T23:24:54.088Z,18.00
2018-07-09T23:27:21.286Z,17.70
2018-07-09T23:29:48.505Z,17.60
2018-07-09T23:32:15.727Z,17.60
2018-07-09T23:34:42.898Z,17.60
2018-07-09T23:37:10.068Z,17.70
2018-07-09T23:39:37.266Z,17.60
2018-07-09T23:42:04.517Z,17.60
2018-07-09T23:44:31.679Z,17.50
2018-07-09T23:46:58.849Z,17.50
2018-07-09T23:49:26.084Z,17.40
2018-07-09T23:51:53.266Z,17.40
2018-07-09T23:54:20.448Z,17.40
2018-07-09T23:56:56.778Z,17.30
2018-07-09T23:59:36.292Z,17.30
